createdAt,value
2019-01-14T00:00:17.411Z,7.37
2019-01-14T00:01:17.346Z,7.34
2019-01-14T00:02:17.288Z,7.34
2019-01-14T00:03:17.225Z,7.29
2019-01-14T00:04:17.168Z,7.42
2019-01-14T00:05:17.104Z,7.34
2019-01-14T00:06:17.043Z,7.26
2019-01-14T00:07:16.982Z,7.34
2019-01-14T00:08:16.919Z,7.32
2019-01-14T00:09:23.281Z,7.35
2019-01-14T00:10:16.799Z,7.40
2019-01-14T00:11:16.741Z,7.41
2019-01-14T00:12:16.677Z,7.34
2019-01-14T00:13:16.615Z,7.32
2019-01-14T00:14:16.554Z,7.34
2019-01-14T00:15:16.496Z,7.40
2019-01-14T00:16:16.433Z,7.35
2019-01-14T00:17:16.373Z,7.35
2019-01-14T00:18:16.311Z,7.35
2019-01-14T00:19:16.254Z,7.32
2019-01-14T00:20:16.191Z,7.34
2019-01-14T00:21:16.131Z,7.31
2019-01-14T00:22:16.071Z,7.35
2019-01-14T00:23:16.008Z,7.31
2019-01-14T00:24:15.945Z,7.31
2019-01-14T00:25:15.886Z,7.32
2019-01-14T00:26:15.824Z,7.37
2019-01-14T00:27:15.770Z,7.40
2019-01-14T00:28:15.702Z,7.31
2019-01-14T00:29:15.641Z,7.38
2019-01-14T00:30:15.582Z,7.37
2019-01-14T00:31:15.522Z,7.31
2019-01-14T00:32:15.461Z,7.34
2019-01-14T00:33:15.399Z,7.34
2019-01-14T00:34:15.340Z,7.32
2019-01-14T00:35:15.279Z,7.31
2019-01-14T00:36:17.663Z,7.34
2019-01-14T00:37:15.154Z,7.44
2019-01-14T00:38:15.095Z,7.35
2019-01-14T00:39:15.035Z,7.37
2019-01-14T00:40:14.973Z,7.40
2019-01-14T00:41:14.911Z,7.38
2019-01-14T00:42:14.851Z,7.40
2019-01-14T00:43:14.791Z,7.34
2019-01-14T00:44:14.729Z,7.32
2019-01-14T00:45:14.669Z,7.35
2019-01-14T00:46:14.608Z,7.27
2019-01-14T00:47:14.548Z,7.35
2019-01-14T00:48:14.485Z,7.35
2019-01-14T00:49:14.427Z,7.37
2019-01-14T00:50:14.364Z,7.35
2019-01-14T00:51:14.334Z,7.34
2019-01-14T00:52:14.242Z,7.34
2019-01-14T00:53:14.188Z,7.35
2019-01-14T00:54:14.123Z,7.31
2019-01-14T00:55:14.060Z,7.32
2019-01-14T00:56:14.002Z,7.34
2019-01-14T00:57:13.938Z,7.37
2019-01-14T00:58:13.878Z,7.34
2019-01-14T00:59:13.817Z,7.27
2019-01-14T01:00:13.759Z,7.34
2019-01-14T01:01:13.698Z,7.37
2019-01-14T01:02:13.633Z,7.34
2019-01-14T01:03:13.573Z,7.34
2019-01-14T01:04:13.511Z,7.37
2019-01-14T01:05:13.454Z,7.34
2019-01-14T01:06:13.391Z,7.32
2019-01-14T01:07:13.330Z,7.37
2019-01-14T01:08:13.271Z,7.32
2019-01-14T01:09:13.207Z,7.35
2019-01-14T01:10:13.146Z,7.38
2019-01-14T01:11:13.087Z,7.24
2019-01-14T01:12:13.025Z,7.38
2019-01-14T01:13:12.971Z,7.35
2019-01-14T01:14:12.903Z,7.32
2019-01-14T01:15:12.843Z,7.32
2019-01-14T01:16:12.785Z,7.34
2019-01-14T01:17:12.724Z,7.32
2019-01-14T01:18:12.661Z,7.34
2019-01-14T01:19:12.600Z,7.24
2019-01-14T01:20:12.537Z,7.32
2019-01-14T01:21:12.478Z,7.38
2019-01-14T01:22:12.422Z,7.32
2019-01-14T01:23:12.357Z,7.32
2019-01-14T01:24:12.295Z,7.32
2019-01-14T01:25:12.236Z,7.29
2019-01-14T01:26:12.175Z,7.29
2019-01-14T01:27:12.228Z,7.35
2019-01-14T01:28:12.053Z,7.32
2019-01-14T01:29:11.990Z,7.31
2019-01-14T01:30:11.929Z,7.40
2019-01-14T01:31:11.870Z,7.40
2019-01-14T01:32:11.807Z,7.41
2019-01-14T01:33:11.862Z,7.32
2019-01-14T01:34:11.688Z,7.38
2019-01-14T01:35:11.626Z,7.40
2019-01-14T01:36:11.563Z,7.34
2019-01-14T01:37:11.505Z,7.40
2019-01-14T01:38:11.442Z,7.31
2019-01-14T01:39:11.386Z,7.26
2019-01-14T01:40:11.325Z,7.41
2019-01-14T01:41:11.260Z,7.24
2019-01-14T01:42:11.202Z,7.26
2019-01-14T01:43:11.138Z,7.24
2019-01-14T01:44:11.078Z,7.29
2019-01-14T01:45:11.251Z,7.29
2019-01-14T01:46:10.958Z,7.34
2019-01-14T01:47:10.897Z,7.32
2019-01-14T01:48:10.838Z,7.42
2019-01-14T01:49:10.773Z,7.31
2019-01-14T01:50:10.717Z,7.32
2019-01-14T01:51:10.652Z,7.27
2019-01-14T01:52:10.590Z,7.40
2019-01-14T01:53:10.531Z,7.32
2019-01-14T01:54:10.469Z,7.29
2019-01-14T01:55:10.408Z,7.31
2019-01-14T01:56:10.346Z,7.35
2019-01-14T01:57:10.287Z,7.27
2019-01-14T01:58:10.228Z,7.26
2019-01-14T01:59:10.165Z,7.31
2019-01-14T02:00:10.103Z,7.41
2019-01-14T02:01:10.043Z,7.40
2019-01-14T02:02:09.982Z,7.26
2019-01-14T02:03:09.921Z,7.31
2019-01-14T02:04:09.860Z,7.31
2019-01-14T02:05:09.799Z,7.35
2019-01-14T02:06:09.739Z,7.22
2019-01-14T02:07:09.676Z,7.31
2019-01-14T02:08:09.616Z,7.40
2019-01-14T02:09:09.556Z,7.29
2019-01-14T02:10:09.495Z,7.29
2019-01-14T02:11:09.434Z,7.34
2019-01-14T02:12:09.372Z,7.31
2019-01-14T02:13:09.311Z,7.34
2019-01-14T02:14:09.283Z,7.32
2019-01-14T02:15:09.190Z,7.27
2019-01-14T02:16:09.194Z,7.29
2019-01-14T02:17:09.067Z,7.34
2019-01-14T02:18:09.007Z,7.32
2019-01-14T02:19:08.946Z,7.38
2019-01-14T02:20:08.885Z,7.29
2019-01-14T02:21:08.824Z,7.29
2019-01-14T02:22:08.765Z,7.34
2019-01-14T02:23:08.703Z,7.35
2019-01-14T02:25:40.219Z,7.29
2019-01-14T02:26:40.103Z,7.37
2019-01-14T02:28:33.439Z,7.32
2019-01-14T02:29:33.329Z,7.35
2019-01-14T02:30:33.263Z,7.27
2019-01-14T02:31:33.207Z,7.26
2019-01-14T02:32:33.120Z,7.32
2019-01-14T02:33:33.065Z,7.32
2019-01-14T02:34:33.002Z,7.26
2019-01-14T02:35:32.941Z,7.32
2019-01-14T02:36:32.877Z,7.34
2019-01-14T02:37:32.820Z,7.37
2019-01-14T02:38:32.759Z,7.32
2019-01-14T02:39:32.697Z,7.37
2019-01-14T02:40:32.636Z,7.26
2019-01-14T02:41:32.573Z,7.31
2019-01-14T02:42:32.513Z,7.35
2019-01-14T02:43:32.452Z,7.31
2019-01-14T02:44:32.390Z,7.23
2019-01-14T02:45:32.334Z,7.32
2019-01-14T02:46:32.269Z,7.35
2019-01-14T02:47:32.213Z,7.29
2019-01-14T02:53:19.677Z,7.32
2019-01-14T02:54:19.611Z,7.35
2019-01-14T02:56:12.401Z,7.32
2019-01-14T02:57:12.301Z,7.31
2019-01-14T02:59:05.081Z,7.32
2019-01-14T03:00:05.013Z,7.32
2019-01-14T03:05:02.249Z,7.32
2019-01-14T03:06:02.136Z,7.34
2019-01-14T03:07:54.916Z,7.35
2019-01-14T03:08:54.849Z,7.29
2019-01-14T03:10:47.690Z,7.26
2019-01-14T03:11:47.558Z,7.31
2019-01-14T03:13:40.344Z,7.37
2019-01-14T03:14:40.281Z,7.34
2019-01-14T03:16:33.111Z,7.31
2019-01-14T03:17:32.986Z,7.32
2019-01-14T03:19:25.781Z,7.35
2019-01-14T03:20:25.681Z,7.27
2019-01-14T03:22:18.958Z,7.22
2019-01-14T03:23:18.895Z,7.34
2019-01-14T03:24:18.832Z,7.22
2019-01-14T03:25:18.772Z,7.37
2019-01-14T03:26:18.711Z,7.38
2019-01-14T03:27:18.649Z,7.27
2019-01-14T03:28:18.588Z,7.26
2019-01-14T03:29:18.529Z,7.38
2019-01-14T03:30:18.468Z,7.32
2019-01-14T03:31:18.408Z,7.22
2019-01-14T03:32:18.351Z,7.32
2019-01-14T03:33:18.286Z,7.38
2019-01-14T03:34:18.223Z,7.40
2019-01-14T03:35:18.165Z,7.23
2019-01-14T03:36:18.104Z,7.40
2019-01-14T03:37:18.042Z,7.31
2019-01-14T03:38:17.982Z,7.31
2019-01-14T03:39:17.925Z,7.23
2019-01-14T03:40:17.861Z,7.32
2019-01-14T03:41:17.799Z,7.23
2019-01-14T03:42:17.737Z,7.37
2019-01-14T03:43:17.674Z,7.24
2019-01-14T03:44:17.614Z,7.22
2019-01-14T03:45:17.555Z,7.37
2019-01-14T03:46:17.495Z,7.31
2019-01-14T03:47:17.433Z,7.24
2019-01-14T03:48:17.371Z,7.23
2019-01-14T03:49:17.313Z,7.38
2019-01-14T03:50:17.249Z,7.26
2019-01-14T03:51:17.188Z,7.20
2019-01-14T03:52:17.133Z,7.22
2019-01-14T03:53:17.068Z,7.22
2019-01-14T03:54:17.004Z,7.23
2019-01-14T03:55:16.944Z,7.37
2019-01-14T03:56:16.962Z,7.20
2019-01-14T03:57:16.823Z,7.24
2019-01-14T03:58:16.765Z,7.37
2019-01-14T03:59:16.702Z,7.26
2019-01-14T04:00:16.640Z,7.20
2019-01-14T04:01:16.579Z,7.23
2019-01-14T04:02:16.521Z,7.27
2019-01-14T04:03:16.457Z,7.22
2019-01-14T04:04:16.396Z,7.35
2019-01-14T04:05:16.339Z,7.35
2019-01-14T04:06:16.277Z,7.24
2019-01-14T04:07:16.214Z,7.27
2019-01-14T04:08:16.162Z,7.37
2019-01-14T04:09:16.093Z,7.34
2019-01-14T04:10:16.036Z,7.37
2019-01-14T04:11:15.972Z,7.38
2019-01-14T04:12:15.909Z,7.31
2019-01-14T04:13:15.851Z,7.31
2019-01-14T04:14:15.789Z,7.24
2019-01-14T04:15:15.735Z,7.34
2019-01-14T04:16:15.667Z,7.26
2019-01-14T04:17:15.605Z,7.23
2019-01-14T04:18:15.545Z,7.26
2019-01-14T04:19:15.484Z,7.35
2019-01-14T04:20:15.423Z,7.23
2019-01-14T04:21:15.365Z,7.22
2019-01-14T04:22:15.305Z,7.31
2019-01-14T04:23:15.246Z,7.34
2019-01-14T04:24:15.180Z,7.37
2019-01-14T04:25:15.124Z,7.22
2019-01-14T04:26:15.056Z,7.38
2019-01-14T04:27:14.996Z,7.31
2019-01-14T04:28:14.936Z,7.20
2019-01-14T04:29:14.876Z,7.35
2019-01-14T04:30:14.813Z,7.26
2019-01-14T04:31:15.886Z,7.22
2019-01-14T04:32:14.693Z,7.23
2019-01-14T04:33:14.631Z,7.22
2019-01-14T04:34:14.634Z,7.27
2019-01-14T04:35:14.510Z,7.37
2019-01-14T04:36:14.450Z,7.32
2019-01-14T04:37:21.303Z,7.37
2019-01-14T04:38:14.326Z,7.31
2019-01-14T04:39:14.269Z,7.38
2019-01-14T04:40:14.206Z,7.37
2019-01-14T04:41:14.158Z,7.32
2019-01-14T04:42:14.085Z,7.27
2019-01-14T04:43:14.022Z,7.20
2019-01-14T04:44:13.961Z,7.37
2019-01-14T04:45:13.900Z,7.38
2019-01-14T04:46:13.838Z,7.40
2019-01-14T04:47:13.778Z,7.23
2019-01-14T04:48:13.718Z,7.27
2019-01-14T04:49:13.657Z,7.37
2019-01-14T04:50:13.627Z,7.20
2019-01-14T04:51:13.534Z,7.38
2019-01-14T04:52:13.474Z,7.22
2019-01-14T04:53:13.413Z,7.27
2019-01-14T04:54:13.352Z,7.23
2019-01-14T04:55:13.291Z,7.27
2019-01-14T04:56:13.231Z,7.34
2019-01-14T04:57:13.170Z,7.23
2019-01-14T04:58:13.108Z,7.24
2019-01-14T04:59:13.047Z,7.27
2019-01-14T05:00:12.986Z,7.20
2019-01-14T05:01:12.926Z,7.31
2019-01-14T05:02:12.864Z,7.26
2019-01-14T05:03:12.806Z,7.23
2019-01-14T05:04:12.744Z,7.24
2019-01-14T05:05:12.684Z,7.23
2019-01-14T05:06:12.621Z,7.37
2019-01-14T05:07:12.559Z,7.29
2019-01-14T05:08:12.499Z,7.31
2019-01-14T05:09:12.438Z,7.32
2019-01-14T05:10:12.376Z,7.35
2019-01-14T05:11:12.316Z,7.26
2019-01-14T05:12:12.257Z,7.37
2019-01-14T05:13:12.196Z,7.34
2019-01-14T05:14:12.134Z,7.37
2019-01-14T05:15:12.072Z,7.37
2019-01-14T05:16:12.013Z,7.22
2019-01-14T05:17:11.955Z,7.23
2019-01-14T05:18:11.890Z,7.22
2019-01-14T05:19:11.832Z,7.38
2019-01-14T05:20:11.769Z,7.23
2019-01-14T05:21:11.719Z,7.34
2019-01-14T05:22:11.650Z,7.37
2019-01-14T05:23:11.586Z,7.32
2019-01-14T05:24:11.548Z,7.26
2019-01-14T05:25:11.465Z,7.26
2019-01-14T05:26:11.404Z,7.29
2019-01-14T05:27:11.342Z,7.29
2019-01-14T05:28:11.371Z,7.23
2019-01-14T05:29:11.220Z,7.32
2019-01-14T05:30:11.158Z,7.20
2019-01-14T05:31:11.098Z,7.24
2019-01-14T05:32:11.042Z,7.23
2019-01-14T05:33:10.978Z,7.27
2019-01-14T05:34:10.916Z,7.26
2019-01-14T05:35:10.864Z,7.20
2019-01-14T05:36:10.800Z,7.38
2019-01-14T05:37:10.734Z,7.24
2019-01-14T05:38:10.671Z,7.26
2019-01-14T05:39:10.610Z,7.22
2019-01-14T05:40:10.550Z,7.23
2019-01-14T05:41:10.489Z,7.34
2019-01-14T05:42:10.427Z,7.24
2019-01-14T05:43:10.367Z,7.26
2019-01-14T05:44:10.305Z,7.34
2019-01-14T05:45:10.247Z,7.26
2019-01-14T05:46:10.185Z,7.23
2019-01-14T05:47:10.132Z,7.24
2019-01-14T05:48:10.064Z,7.24
2019-01-14T05:49:10.005Z,7.26
2019-01-14T05:50:09.940Z,7.37
2019-01-14T05:51:09.883Z,7.29
2019-01-14T05:52:09.818Z,7.22
2019-01-14T05:53:09.760Z,7.23
2019-01-14T05:54:09.698Z,7.34
2019-01-14T05:55:09.636Z,7.32
2019-01-14T05:56:09.575Z,7.37
2019-01-14T05:57:09.516Z,7.34
2019-01-14T05:58:09.455Z,7.31
2019-01-14T05:59:09.395Z,7.38
2019-01-14T06:00:09.335Z,7.34
2019-01-14T06:01:09.271Z,7.22
2019-01-14T06:02:09.211Z,7.32
2019-01-14T06:03:09.150Z,7.38
2019-01-14T06:04:09.090Z,7.23
2019-01-14T06:05:09.027Z,7.34
2019-01-14T06:06:08.969Z,7.38
2019-01-14T06:07:08.908Z,7.38
2019-01-14T06:08:08.847Z,7.24
2019-01-14T06:09:08.784Z,7.23
2019-01-14T06:10:08.730Z,7.37
2019-01-14T06:11:08.661Z,7.26
2019-01-14T06:12:08.603Z,7.38
2019-01-14T06:13:08.545Z,7.20
2019-01-14T06:14:08.528Z,7.34
2019-01-14T06:15:08.418Z,7.24
2019-01-14T06:16:08.359Z,7.37
2019-01-14T06:17:08.299Z,7.27
2019-01-14T06:18:08.238Z,7.26
2019-01-14T06:19:08.176Z,7.37
2019-01-14T06:20:08.119Z,7.27
2019-01-14T06:21:08.055Z,7.23
2019-01-14T06:22:07.992Z,7.29
2019-01-14T06:23:07.931Z,7.23
2019-01-14T06:24:07.870Z,7.35
2019-01-14T06:25:07.810Z,7.22
2019-01-14T06:26:07.748Z,7.34
2019-01-14T06:27:07.686Z,7.22
2019-01-14T06:28:07.626Z,7.31
2019-01-14T06:29:07.571Z,7.27
2019-01-14T06:30:07.504Z,7.24
2019-01-14T06:31:07.443Z,7.40
2019-01-14T06:32:07.382Z,7.38
2019-01-14T06:33:07.328Z,7.27
2019-01-14T06:34:07.397Z,7.32
2019-01-14T06:35:07.203Z,7.31
2019-01-14T06:36:07.139Z,7.32
2019-01-14T06:37:07.078Z,7.34
2019-01-14T06:38:07.021Z,7.32
2019-01-14T06:39:06.956Z,7.24
2019-01-14T06:40:06.896Z,7.32
2019-01-14T06:41:06.836Z,7.34
2019-01-14T06:42:07.637Z,7.35
2019-01-14T06:43:06.716Z,7.26
2019-01-14T06:44:06.652Z,7.23
2019-01-14T06:45:06.591Z,7.32
2019-01-14T06:46:06.530Z,7.32
2019-01-14T06:47:06.469Z,7.26
2019-01-14T06:48:06.409Z,7.31
2019-01-14T06:49:06.365Z,7.22
2019-01-14T06:50:06.285Z,7.32
2019-01-14T06:51:06.227Z,7.37
2019-01-14T06:52:06.165Z,7.34
2019-01-14T06:53:06.104Z,7.22
2019-01-14T06:54:06.043Z,7.31
2019-01-14T06:55:05.982Z,7.32
2019-01-14T06:56:05.922Z,7.34
2019-01-14T06:57:05.866Z,7.34
2019-01-14T06:58:05.798Z,7.31
2019-01-14T06:59:05.738Z,7.34
2019-01-14T07:00:05.678Z,7.34
2019-01-14T07:01:05.617Z,7.32
2019-01-14T07:02:05.558Z,7.34
2019-01-14T07:03:05.495Z,7.38
2019-01-14T07:04:05.439Z,7.34
2019-01-14T07:05:05.373Z,7.34
2019-01-14T07:06:05.311Z,7.24
2019-01-14T07:07:05.321Z,7.31
2019-01-14T07:08:05.195Z,7.29
2019-01-14T07:09:05.129Z,7.37
2019-01-14T07:10:05.068Z,7.31
2019-01-14T07:11:05.009Z,7.35
2019-01-14T07:12:04.955Z,7.29
2019-01-14T07:13:04.889Z,7.37
2019-01-14T07:14:04.827Z,7.26
2019-01-14T07:15:04.763Z,7.31
2019-01-14T07:16:04.711Z,7.31
2019-01-14T07:17:04.646Z,7.27
2019-01-14T07:18:04.580Z,7.31
2019-01-14T07:19:04.521Z,7.37
2019-01-14T07:20:04.459Z,7.31
2019-01-14T07:21:04.399Z,7.35
2019-01-14T07:22:04.399Z,7.24
2019-01-14T07:23:04.276Z,7.32
2019-01-14T07:24:04.216Z,7.26
2019-01-14T07:25:04.155Z,7.34
2019-01-14T07:26:04.117Z,7.24
2019-01-14T07:27:04.036Z,7.35
2019-01-14T07:28:03.972Z,7.29
2019-01-14T07:29:03.911Z,7.31
2019-01-14T07:30:03.851Z,7.31
2019-01-14T07:31:03.789Z,7.34
2019-01-14T07:32:03.729Z,7.32
2019-01-14T07:33:04.602Z,7.37
2019-01-14T07:34:03.605Z,7.34
2019-01-14T07:35:03.549Z,7.26
2019-01-14T07:36:03.486Z,7.29
2019-01-14T07:37:03.424Z,7.34
2019-01-14T07:38:06.836Z,7.37
2019-01-14T07:39:03.457Z,7.29
2019-01-14T07:40:03.246Z,7.41
2019-01-14T07:41:03.184Z,7.35
2019-01-14T07:42:03.125Z,7.27
2019-01-14T07:43:03.057Z,7.40
2019-01-14T07:44:02.997Z,7.31
2019-01-14T07:45:02.937Z,7.34
2019-01-14T07:46:02.875Z,7.31
2019-01-14T07:47:02.816Z,7.26
2019-01-14T07:48:02.754Z,7.37
2019-01-14T07:49:02.693Z,7.24
2019-01-14T07:50:02.633Z,7.29
2019-01-14T07:51:02.574Z,7.27
2019-01-14T07:52:02.510Z,7.34
2019-01-14T07:53:02.450Z,7.22
2019-01-14T07:54:02.390Z,7.29
2019-01-14T07:55:02.328Z,7.37
2019-01-14T07:56:02.269Z,7.27
2019-01-14T07:57:02.206Z,7.24
2019-01-14T07:58:02.144Z,7.34
2019-01-14T07:59:02.086Z,7.34
2019-01-14T08:00:02.023Z,7.24
2019-01-14T08:01:01.980Z,7.34
2019-01-14T08:02:01.902Z,7.35
2019-01-14T08:03:01.842Z,7.35
2019-01-14T08:04:01.779Z,7.38
2019-01-14T08:05:01.724Z,7.32
2019-01-14T08:06:01.662Z,7.27
2019-01-14T08:07:01.596Z,7.29
2019-01-14T08:08:01.545Z,7.31
2019-01-14T08:09:01.475Z,7.40
2019-01-14T08:10:01.417Z,7.34
2019-01-14T08:11:01.353Z,7.29
2019-01-14T08:12:01.291Z,7.34
2019-01-14T08:13:01.230Z,7.31
2019-01-14T08:14:01.172Z,7.38
2019-01-14T08:15:01.108Z,7.32
2019-01-14T08:16:01.049Z,7.24
2019-01-14T08:17:00.989Z,7.31
2019-01-14T08:18:00.927Z,7.26
2019-01-14T08:19:00.867Z,7.32
2019-01-14T08:20:00.805Z,7.41
2019-01-14T08:21:00.744Z,7.26
2019-01-14T08:22:00.683Z,7.37
2019-01-14T08:23:00.622Z,7.32
2019-01-14T08:24:00.562Z,7.40
2019-01-14T08:25:00.500Z,7.34
2019-01-14T08:26:00.439Z,7.32
2019-01-14T08:27:00.378Z,7.26
2019-01-14T08:28:00.319Z,7.32
2019-01-14T08:29:00.258Z,7.34
2019-01-14T08:30:00.265Z,7.40
2019-01-14T08:31:00.136Z,7.40
2019-01-14T08:32:00.075Z,7.31
2019-01-14T08:33:00.012Z,7.32
2019-01-14T08:33:59.952Z,7.31
2019-01-14T08:34:59.891Z,7.31
2019-01-14T08:35:59.834Z,7.34
2019-01-14T08:37:00.825Z,7.37
2019-01-14T08:37:59.711Z,7.34
2019-01-14T08:38:59.647Z,7.26
2019-01-14T08:39:59.585Z,7.37
2019-01-14T08:40:59.530Z,7.29
2019-01-14T08:41:59.463Z,7.31
2019-01-14T08:42:59.405Z,7.24
2019-01-14T08:43:59.343Z,7.29
2019-01-14T08:44:59.282Z,7.32
2019-01-14T08:45:59.220Z,7.35
2019-01-14T08:46:59.159Z,7.32
2019-01-14T08:47:59.099Z,7.29
2019-01-14T08:48:59.038Z,7.31
2019-01-14T08:49:58.978Z,7.24
2019-01-14T08:50:58.915Z,7.32
2019-01-14T08:51:58.855Z,7.34
2019-01-14T08:52:58.794Z,7.40
2019-01-14T08:53:58.734Z,7.31
2019-01-14T08:54:58.671Z,7.26
2019-01-14T08:55:58.612Z,7.27
2019-01-14T08:56:58.551Z,7.29
2019-01-14T08:57:58.490Z,7.32
2019-01-14T08:58:58.430Z,7.27
2019-01-14T08:59:58.373Z,7.31
2019-01-14T09:00:58.307Z,7.38
2019-01-14T09:01:58.246Z,7.32
2019-01-14T09:02:58.185Z,7.32
2019-01-14T09:03:58.125Z,7.35
2019-01-14T09:04:58.064Z,7.34
2019-01-14T09:05:58.002Z,7.35
2019-01-14T09:06:57.945Z,7.34
2019-01-14T09:07:57.881Z,7.29
2019-01-14T09:08:57.820Z,7.31
2019-01-14T09:09:57.758Z,7.31
2019-01-14T09:10:57.697Z,7.34
2019-01-14T09:11:57.639Z,7.34
2019-01-14T09:12:57.577Z,7.37
2019-01-14T09:13:57.514Z,7.34
2019-01-14T09:14:57.455Z,7.37
2019-01-14T09:15:57.394Z,7.37
2019-01-14T09:16:57.333Z,7.32
2019-01-14T09:18:02.705Z,7.26
2019-01-14T09:18:57.210Z,7.32
2019-01-14T09:19:57.151Z,7.27
2019-01-14T09:20:57.090Z,7.31
2019-01-14T09:21:57.063Z,7.34
2019-01-14T09:22:56.966Z,7.34
2019-01-14T09:23:56.906Z,7.37
2019-01-14T09:24:56.846Z,7.38
2019-01-14T09:25:56.784Z,7.31
2019-01-14T09:26:56.727Z,7.38
2019-01-14T09:27:56.662Z,7.35
2019-01-14T09:28:56.602Z,7.32
2019-01-14T09:29:56.542Z,7.34
2019-01-14T09:30:56.480Z,7.31
2019-01-14T09:31:56.421Z,7.32
2019-01-14T09:32:56.368Z,7.27
2019-01-14T09:33:56.297Z,7.34
2019-01-14T09:34:56.236Z,7.29
2019-01-14T09:35:56.174Z,7.27
2019-01-14T09:36:56.114Z,7.34
2019-01-14T09:37:56.056Z,7.34
2019-01-14T09:38:55.999Z,7.35
2019-01-14T09:39:55.934Z,7.37
2019-01-14T09:40:55.871Z,7.27
2019-01-14T09:41:55.811Z,7.31
2019-01-14T09:42:55.749Z,7.40
2019-01-14T09:43:55.688Z,7.32
2019-01-14T09:44:55.628Z,7.32
2019-01-14T09:45:55.566Z,7.38
2019-01-14T09:46:55.507Z,7.35
2019-01-14T09:47:55.446Z,7.34
2019-01-14T09:48:55.384Z,7.32
2019-01-14T09:49:55.323Z,7.27
2019-01-14T09:50:55.261Z,7.35
2019-01-14T09:51:55.201Z,7.29
2019-01-14T09:52:55.141Z,7.37
2019-01-14T09:53:55.080Z,7.35
2019-01-14T09:54:55.018Z,7.38
2019-01-14T09:55:54.961Z,7.31
2019-01-14T09:56:54.899Z,7.34
2019-01-14T09:57:54.835Z,7.29
2019-01-14T09:58:54.777Z,7.34
2019-01-14T09:59:54.717Z,7.31
2019-01-14T10:00:54.653Z,7.31
2019-01-14T10:01:54.593Z,7.32
2019-01-14T10:02:55.636Z,7.35
2019-01-14T10:03:54.476Z,7.42
2019-01-14T10:04:54.411Z,7.34
2019-01-14T10:05:54.348Z,7.35
2019-01-14T10:06:54.287Z,7.34
2019-01-14T10:07:54.226Z,7.40
2019-01-14T10:08:54.169Z,7.40
2019-01-14T10:09:54.106Z,7.42
2019-01-14T10:10:54.044Z,7.35
2019-01-14T10:11:53.985Z,7.35
2019-01-14T10:12:53.929Z,7.35
2019-01-14T10:13:53.862Z,7.37
2019-01-14T10:14:53.803Z,7.44
2019-01-14T10:15:53.741Z,7.35
2019-01-14T10:16:53.678Z,7.38
2019-01-14T10:17:53.620Z,7.35
2019-01-14T10:18:53.557Z,7.40
2019-01-14T10:19:53.496Z,7.35
2019-01-14T10:20:53.436Z,7.34
2019-01-14T10:21:53.378Z,7.37
2019-01-14T10:22:53.313Z,7.35
2019-01-14T10:23:53.253Z,7.44
2019-01-14T10:24:53.195Z,7.42
2019-01-14T10:25:53.132Z,7.41
2019-01-14T10:26:53.069Z,7.42
2019-01-14T10:27:53.009Z,7.42
2019-01-14T10:28:52.952Z,7.37
2019-01-14T10:29:52.888Z,7.42
2019-01-14T10:30:52.830Z,7.42
2019-01-14T10:31:52.766Z,7.41
2019-01-14T10:32:52.723Z,7.38
2019-01-14T10:33:52.646Z,7.45
2019-01-14T10:34:52.582Z,7.41
2019-01-14T10:35:52.523Z,7.37
2019-01-14T10:36:52.462Z,7.42
2019-01-14T10:37:52.402Z,7.40
2019-01-14T10:38:52.339Z,7.45
2019-01-14T10:39:52.279Z,7.40
2019-01-14T10:40:52.217Z,7.41
2019-01-14T10:41:52.156Z,7.35
2019-01-14T10:42:52.095Z,7.40
2019-01-14T10:43:52.035Z,7.41
2019-01-14T10:44:51.975Z,7.38
2019-01-14T10:45:51.913Z,7.49
2019-01-14T10:46:51.851Z,7.50
2019-01-14T10:47:51.791Z,7.42
2019-01-14T10:48:51.731Z,7.40
2019-01-14T10:49:51.669Z,7.40
2019-01-14T10:50:51.609Z,7.41
2019-01-14T10:51:51.547Z,7.42
2019-01-14T10:52:51.487Z,7.40
2019-01-14T10:53:51.426Z,7.45
2019-01-14T10:54:51.367Z,7.40
2019-01-14T10:55:51.303Z,7.44
2019-01-14T10:56:51.245Z,7.44
2019-01-14T10:57:51.182Z,7.40
2019-01-14T10:58:51.121Z,7.45
2019-01-14T10:59:51.061Z,7.47
2019-01-14T11:00:50.999Z,7.45
2019-01-14T11:02:05.645Z,7.47
2019-01-14T11:02:50.880Z,7.44
2019-01-14T11:03:50.817Z,7.44
2019-01-14T11:04:50.757Z,7.41
2019-01-14T11:05:50.695Z,7.42
2019-01-14T11:06:50.635Z,7.45
2019-01-14T11:07:50.576Z,7.47
2019-01-14T11:08:57.369Z,7.49
2019-01-14T11:09:50.451Z,7.42
2019-01-14T11:10:50.391Z,7.42
2019-01-14T11:11:50.330Z,7.42
2019-01-14T11:12:50.272Z,7.44
2019-01-14T11:13:50.208Z,7.44
2019-01-14T11:14:50.152Z,7.50
2019-01-14T11:15:50.087Z,7.42
2019-01-14T11:16:50.026Z,7.41
2019-01-14T11:17:49.965Z,7.45
2019-01-14T11:18:49.907Z,7.42
2019-01-14T11:19:49.843Z,7.47
2019-01-14T11:20:49.783Z,7.44
2019-01-14T11:21:49.721Z,7.45
2019-01-14T11:22:49.661Z,7.49
2019-01-14T11:23:49.600Z,7.44
2019-01-14T11:24:49.540Z,7.42
2019-01-14T11:25:49.477Z,7.47
2019-01-14T11:26:49.419Z,7.45
2019-01-14T11:27:49.357Z,7.44
2019-01-14T11:28:49.297Z,7.44
2019-01-14T11:29:49.240Z,7.50
2019-01-14T11:30:49.176Z,7.44
2019-01-14T11:31:49.113Z,7.55
2019-01-14T11:32:49.053Z,7.47
2019-01-14T11:33:48.991Z,7.44
2019-01-14T11:34:48.930Z,7.50
2019-01-14T11:35:48.870Z,7.47
2019-01-14T11:36:48.812Z,7.45
2019-01-14T11:37:48.747Z,7.52
2019-01-14T11:38:48.686Z,7.49
2019-01-14T11:39:48.629Z,7.47
2019-01-14T11:40:48.565Z,7.47
2019-01-14T11:41:48.504Z,7.55
2019-01-14T11:42:48.449Z,7.55
2019-01-14T11:43:48.385Z,7.49
2019-01-14T11:44:48.322Z,7.59
2019-01-14T11:45:48.262Z,7.52
2019-01-14T11:46:48.201Z,7.42
2019-01-14T11:47:48.140Z,7.59
2019-01-14T11:48:48.082Z,7.47
2019-01-14T11:49:48.019Z,7.47
2019-01-14T11:50:47.960Z,7.53
2019-01-14T11:51:47.897Z,7.49
2019-01-14T11:52:47.837Z,7.53
2019-01-14T11:53:47.778Z,7.58
2019-01-14T11:54:47.713Z,7.49
2019-01-14T11:55:47.656Z,7.52
2019-01-14T11:56:47.593Z,7.58
2019-01-14T11:57:47.531Z,7.53
2019-01-14T11:58:47.473Z,7.62
2019-01-14T11:59:47.410Z,7.55
2019-01-14T12:00:47.351Z,7.55
2019-01-14T12:01:47.290Z,7.58
2019-01-14T12:02:47.227Z,7.50
2019-01-14T12:03:47.167Z,7.59
2019-01-14T12:04:47.107Z,7.62
2019-01-14T12:05:47.045Z,7.53
2019-01-14T12:06:46.984Z,7.56
2019-01-14T12:07:46.924Z,7.55
2019-01-14T12:08:46.863Z,7.59
2019-01-14T12:09:46.800Z,7.58
2019-01-14T12:10:46.740Z,7.58
2019-01-14T12:11:46.679Z,7.53
2019-01-14T12:12:46.620Z,7.55
2019-01-14T12:13:46.558Z,7.56
2019-01-14T12:14:46.498Z,7.53
2019-01-14T12:15:46.435Z,7.53
2019-01-14T12:16:46.377Z,7.56
2019-01-14T12:17:46.315Z,7.56
2019-01-14T12:18:46.254Z,7.59
2019-01-14T12:19:46.192Z,7.56
2019-01-14T12:20:46.134Z,7.55
2019-01-14T12:21:46.070Z,7.58
2019-01-14T12:22:46.013Z,7.42
2019-01-14T12:23:45.951Z,7.55
2019-01-14T12:24:45.890Z,7.55
2019-01-14T12:25:45.830Z,7.56
2019-01-14T12:26:45.769Z,7.56
2019-01-14T12:27:45.706Z,7.56
2019-01-14T12:28:45.646Z,7.58
2019-01-14T12:29:45.585Z,7.58
2019-01-14T12:30:45.525Z,7.58
2019-01-14T12:31:45.463Z,7.53
2019-01-14T12:32:45.403Z,7.55
2019-01-14T12:33:45.395Z,7.62
2019-01-14T12:34:45.280Z,7.56
2019-01-14T12:35:45.220Z,7.60
2019-01-14T12:36:45.166Z,7.60
2019-01-14T12:37:45.097Z,7.59
2019-01-14T12:38:45.042Z,7.56
2019-01-14T12:39:44.978Z,7.58
2019-01-14T12:40:44.916Z,7.56
2019-01-14T12:41:51.065Z,7.56
2019-01-14T12:42:44.793Z,7.55
2019-01-14T12:43:44.733Z,7.62
2019-01-14T12:44:44.674Z,7.56
2019-01-14T12:45:44.611Z,7.55
2019-01-14T12:46:44.550Z,7.53
2019-01-14T12:47:44.490Z,7.49
2019-01-14T12:48:44.431Z,7.56
2019-01-14T12:49:44.367Z,7.53
2019-01-14T12:50:44.307Z,7.53
2019-01-14T12:51:44.247Z,7.58
2019-01-14T12:52:44.191Z,7.58
2019-01-14T12:53:44.126Z,7.56
2019-01-14T12:54:44.065Z,7.59
2019-01-14T12:55:44.006Z,7.53
2019-01-14T12:56:43.943Z,7.56
2019-01-14T12:57:43.881Z,7.53
2019-01-14T12:58:43.822Z,7.52
2019-01-14T12:59:43.759Z,7.55
2019-01-14T13:00:43.700Z,7.56
2019-01-14T13:01:43.638Z,7.66
2019-01-14T13:02:43.578Z,7.55
2019-01-14T13:03:43.558Z,7.50
2019-01-14T13:04:43.457Z,7.55
2019-01-14T13:05:43.396Z,7.58
2019-01-14T13:06:43.336Z,7.53
2019-01-14T13:07:43.276Z,7.53
2019-01-14T13:08:43.213Z,7.58
2019-01-14T13:09:43.152Z,7.55
2019-01-14T13:10:43.092Z,7.53
2019-01-14T13:11:43.030Z,7.53
2019-01-14T13:12:42.970Z,7.59
2019-01-14T13:13:42.909Z,7.59
2019-01-14T13:14:42.851Z,7.50
2019-01-14T13:15:42.794Z,7.52
2019-01-14T13:16:42.727Z,7.49
2019-01-14T13:17:42.669Z,7.45
2019-01-14T13:18:42.605Z,7.52
2019-01-14T13:19:42.548Z,7.49
2019-01-14T13:20:42.485Z,7.47
2019-01-14T13:21:42.423Z,7.41
2019-01-14T13:22:42.367Z,7.44
2019-01-14T13:23:42.301Z,7.50
2019-01-14T13:24:42.242Z,7.45
2019-01-14T13:25:42.180Z,7.42
2019-01-14T13:26:42.118Z,7.42
2019-01-14T13:27:42.058Z,7.42
2019-01-14T13:28:41.996Z,7.42
2019-01-14T13:29:41.937Z,7.47
2019-01-14T13:30:41.876Z,7.42
2019-01-14T13:31:41.813Z,7.45
2019-01-14T13:32:41.753Z,7.50
2019-01-14T13:33:41.692Z,7.44
2019-01-14T13:34:44.817Z,7.47
2019-01-14T13:35:41.572Z,7.45